createdAt,value
2023-03-30T00:01:17.329Z,40.65
2023-03-30T00:03:47.493Z,43.53
2023-03-30T00:06:21.848Z,41.13
2023-03-30T00:08:53.565Z,46.35
2023-03-30T00:11:23.451Z,40.28
2023-03-30T00:13:53.920Z,43.65
2023-03-30T00:16:23.201Z,40.65
2023-03-30T00:18:51.738Z,43.03
2023-03-30T00:21:20.913Z,44.20
2023-03-30T00:23:49.724Z,43.42
2023-03-30T00:26:18.697Z,41.47
2023-03-30T00:28:47.325Z,44.72
2023-03-30T00:31:17.044Z,42.60
2023-03-30T00:33:47.384Z,40.80
2023-03-30T00:36:17.164Z,41.78
2023-03-30T00:38:45.781Z,42.90
2023-03-30T00:41:14.318Z,40.42
2023-03-30T00:44:02.328Z,39.97
2023-03-30T00:46:33.209Z,43.67
2023-03-30T00:49:05.783Z,39.03
2023-03-30T00:51:38.741Z,39.28
2023-03-30T00:54:11.142Z,42.67
2023-03-30T00:56:39.847Z,36.90
2023-03-30T00:59:09.232Z,39.53
2023-03-30T01:01:40.505Z,38.28
2023-03-30T01:04:11.065Z,38.40
2023-03-30T01:06:43.634Z,40.72
2023-03-30T01:09:12.341Z,38.65
2023-03-30T01:11:40.970Z,38.33
2023-03-30T01:14:12.537Z,39.15
2023-03-30T01:16:50.524Z,33.38
2023-03-30T01:19:54.775Z,37.40
2023-03-30T01:23:03.792Z,36.83
2023-03-30T01:26:11.806Z,37.35
2023-03-30T01:28:46.941Z,34.17
2023-03-30T01:31:42.435Z,36.33
2023-03-30T01:34:40.747Z,31.13
2023-03-30T01:37:43.607Z,31.90
2023-03-30T01:40:15.935Z,32.67
2023-03-30T01:42:53.389Z,28.38
2023-03-30T01:45:28.817Z,31.73
2023-03-30T01:48:03.739Z,29.00
2023-03-30T01:50:38.209Z,30.73
2023-03-30T01:53:13.035Z,29.95
2023-03-30T01:55:46.407Z,33.05
2023-03-30T01:58:22.847Z,31.02
2023-03-30T02:00:52.840Z,31.05
2023-03-30T02:03:25.053Z,30.70
2023-03-30T02:05:57.653Z,28.27
2023-03-30T02:08:30.925Z,32.47
2023-03-30T02:11:01.920Z,26.70
2023-03-30T02:13:32.851Z,29.50
2023-03-30T02:16:04.639Z,28.80
2023-03-30T02:18:33.058Z,26.02
2023-03-30T02:21:03.677Z,28.45
2023-03-30T02:23:36.784Z,27.98
2023-03-30T02:26:08.173Z,26.02
2023-03-30T02:28:36.741Z,23.73
2023-03-30T02:31:06.221Z,20.60
2023-03-30T02:33:43.326Z,21.23
2023-03-30T02:36:24.928Z,20.35
2023-03-30T02:39:13.958Z,19.02
2023-03-30T02:42:10.031Z,19.55
2023-03-30T02:44:44.357Z,19.83
2023-03-30T02:47:20.821Z,19.92
2023-03-30T02:50:00.996Z,17.25
2023-03-30T02:52:40.820Z,16.75
2023-03-30T02:55:16.782Z,17.30
2023-03-30T02:58:03.250Z,14.57
2023-03-30T03:01:05.141Z,15.73
2023-03-30T03:03:47.248Z,19.88
2023-03-30T03:06:17.117Z,17.65
2023-03-30T03:08:50.595Z,14.85
2023-03-30T03:11:32.190Z,15.52
2023-03-30T03:14:02.973Z,18.55
2023-03-30T03:16:34.123Z,14.93
2023-03-30T03:19:16.115Z,17.27
2023-03-30T03:21:45.814Z,16.65
2023-03-30T03:24:17.458Z,14.57
2023-03-30T03:27:18.222Z,15.30
2023-03-30T03:30:14.844Z,17.45
2023-03-30T03:32:48.517Z,17.00
2023-03-30T03:35:17.908Z,15.90
2023-03-30T03:37:46.296Z,18.95
2023-03-30T03:40:14.779Z,17.13
2023-03-30T03:42:42.836Z,13.27
2023-03-30T03:45:14.364Z,16.50
2023-03-30T03:47:53.510Z,16.60
2023-03-30T03:50:40.096Z,15.57
2023-03-30T03:53:08.380Z,13.52
2023-03-30T03:55:37.916Z,14.82
2023-03-30T03:58:07.391Z,14.73
2023-03-30T04:00:36.895Z,18.52
2023-03-30T04:03:05.503Z,13.77
2023-03-30T04:05:33.655Z,15.45
2023-03-30T04:08:02.769Z,19.23
2023-03-30T04:10:31.140Z,13.70
2023-03-30T04:13:19.556Z,16.05
2023-03-30T04:15:49.003Z,14.00
2023-03-30T04:18:36.345Z,15.43
2023-03-30T04:21:13.028Z,13.18
2023-03-30T04:24:12.176Z,13.77
2023-03-30T04:27:14.483Z,18.83
2023-03-30T04:30:05.736Z,13.98
2023-03-30T04:33:02.816Z,11.50
2023-03-30T04:35:48.983Z,14.32
2023-03-30T04:38:42.913Z,12.98
2023-03-30T04:41:26.144Z,12.52
2023-03-30T04:44:26.110Z,14.00
2023-03-30T04:47:09.691Z,13.85
2023-03-30T04:50:09.175Z,11.93
2023-03-30T04:52:56.196Z,12.93
2023-03-30T04:55:43.949Z,13.85
2023-03-30T04:58:41.015Z,12.75
2023-03-30T05:01:29.242Z,14.38
2023-03-30T05:03:57.336Z,12.75
2023-03-30T05:06:45.229Z,12.68
2023-03-30T05:09:42.637Z,10.48
2023-03-30T05:12:27.605Z,14.88
2023-03-30T05:15:06.524Z,14.98
2023-03-30T05:17:38.454Z,12.52
2023-03-30T05:20:20.174Z,12.07
2023-03-30T05:23:16.083Z,14.85
2023-03-30T05:25:52.915Z,13.30
2023-03-30T05:28:40.337Z,15.25
2023-03-30T05:31:27.958Z,11.27
2023-03-30T05:34:14.090Z,15.18
2023-03-30T05:36:42.105Z,11.73
2023-03-30T05:39:20.410Z,13.45
2023-03-30T05:41:56.129Z,15.30
2023-03-30T05:44:50.160Z,12.20
2023-03-30T05:47:36.846Z,13.82
2023-03-30T05:50:34.928Z,12.27
2023-03-30T05:53:10.048Z,13.00
2023-03-30T05:56:10.458Z,13.38
2023-03-30T05:58:52.760Z,11.27
2023-03-30T06:01:39.474Z,10.85
2023-03-30T06:04:09.002Z,15.85
2023-03-30T06:06:38.110Z,12.55
2023-03-30T06:09:06.602Z,14.63
2023-03-30T06:11:37.904Z,12.13
2023-03-30T06:14:17.288Z,16.05
2023-03-30T06:16:54.839Z,12.30
2023-03-30T06:19:22.919Z,15.15
2023-03-30T06:21:51.172Z,13.90
2023-03-30T06:24:37.355Z,13.30
2023-03-30T06:27:07.412Z,17.20
2023-03-30T06:29:35.883Z,16.73
2023-03-30T06:32:04.945Z,20.67
2023-03-30T06:34:52.367Z,13.80
2023-03-30T06:37:22.410Z,15.45
2023-03-30T06:39:51.536Z,15.50
2023-03-30T06:42:21.158Z,16.35
2023-03-30T06:45:02.110Z,14.52
2023-03-30T06:47:30.181Z,16.23
2023-03-30T06:49:59.459Z,11.68
2023-03-30T06:52:46.125Z,14.63
2023-03-30T06:55:15.522Z,15.45
2023-03-30T06:57:45.011Z,12.88
2023-03-30T07:00:15.239Z,14.25
2023-03-30T07:02:43.877Z,12.43
2023-03-30T07:05:32.312Z,15.25
2023-03-30T07:08:14.431Z,23.27
2023-03-30T07:10:49.647Z,14.05
2023-03-30T07:13:19.168Z,12.70
2023-03-30T07:15:49.196Z,11.38
2023-03-30T07:18:17.294Z,13.43
2023-03-30T07:20:46.065Z,13.88
2023-03-30T07:23:21.721Z,18.95
2023-03-30T07:25:53.106Z,11.50
2023-03-30T07:28:38.258Z,16.02
2023-03-30T07:31:07.894Z,13.18
2023-03-30T07:33:38.238Z,11.10
2023-03-30T07:36:08.745Z,10.35
2023-03-30T07:38:38.427Z,13.05
2023-03-30T07:41:10.238Z,13.57
2023-03-30T07:43:40.748Z,14.88
2023-03-30T07:46:09.842Z,11.52
2023-03-30T07:48:40.308Z,13.77
2023-03-30T07:51:10.519Z,13.43
2023-03-30T07:53:45.438Z,11.77
2023-03-30T07:56:21.766Z,12.07
2023-03-30T07:58:53.790Z,12.60
2023-03-30T08:01:25.677Z,15.38
2023-03-30T08:03:56.586Z,14.18
2023-03-30T08:06:25.223Z,12.35
2023-03-30T08:08:57.553Z,19.23
2023-03-30T08:11:25.905Z,15.55
2023-03-30T08:13:55.486Z,12.93
2023-03-30T08:16:23.580Z,14.50
2023-03-30T08:18:54.731Z,11.85
2023-03-30T08:21:25.024Z,12.82
2023-03-30T08:23:53.067Z,15.25
2023-03-30T08:26:21.066Z,15.23
2023-03-30T08:28:49.112Z,17.13
2023-03-30T08:31:21.095Z,14.25
2023-03-30T08:33:49.355Z,15.80
2023-03-30T08:36:17.712Z,16.50
2023-03-30T08:38:46.293Z,13.23
2023-03-30T08:41:52.739Z,21.02
2023-03-30T08:44:32.783Z,18.23
2023-03-30T08:47:04.673Z,25.80
2023-03-30T08:49:39.057Z,15.70
2023-03-30T08:52:08.382Z,21.73
2023-03-30T08:54:36.449Z,20.83
2023-03-30T08:57:13.389Z,18.30
2023-03-30T08:59:47.820Z,17.88
2023-03-30T09:02:21.722Z,17.17
2023-03-30T09:04:58.171Z,17.95
2023-03-30T09:07:28.691Z,17.88
2023-03-30T09:09:58.442Z,20.73
2023-03-30T09:12:37.500Z,22.08
2023-03-30T09:15:12.505Z,24.90
2023-03-30T09:17:46.790Z,19.95
2023-03-30T09:20:20.636Z,21.38
2023-03-30T09:22:49.673Z,23.02
2023-03-30T09:25:19.765Z,20.67
2023-03-30T09:27:59.767Z,20.27
2023-03-30T09:30:40.494Z,14.82
2023-03-30T09:33:22.936Z,25.35
2023-03-30T09:36:03.683Z,17.35
2023-03-30T09:38:32.333Z,23.15
2023-03-30T09:41:21.832Z,20.38
2023-03-30T09:43:52.192Z,20.45
2023-03-30T09:46:20.462Z,15.57
2023-03-30T09:48:51.384Z,20.40
2023-03-30T09:51:23.098Z,18.90
2023-03-30T09:53:53.501Z,17.48
2023-03-30T09:56:28.326Z,23.67
2023-03-30T09:58:56.891Z,17.38
2023-03-30T10:01:37.995Z,16.77
2023-03-30T10:04:12.935Z,20.27
2023-03-30T10:06:48.771Z,17.95
2023-03-30T10:09:19.149Z,27.05
2023-03-30T10:11:50.232Z,22.98
2023-03-30T10:14:29.070Z,17.63
2023-03-30T10:16:57.971Z,20.67
2023-03-30T10:19:27.382Z,18.40
2023-03-30T10:21:57.772Z,20.05
2023-03-30T10:24:29.345Z,20.92
2023-03-30T10:26:58.901Z,17.63
2023-03-30T10:29:28.509Z,19.50
2023-03-30T10:32:02.109Z,18.98
2023-03-30T10:34:37.923Z,16.77
2023-03-30T10:37:10.427Z,16.05
2023-03-30T10:39:41.352Z,16.58
2023-03-30T10:42:12.412Z,19.38
2023-03-30T10:44:45.918Z,20.42
2023-03-30T10:47:29.483Z,14.07
2023-03-30T10:50:08.639Z,17.08
2023-03-30T10:52:56.029Z,17.10
2023-03-30T10:55:32.303Z,11.38
2023-03-30T10:58:11.137Z,17.20
2023-03-30T11:00:53.188Z,23.15
2023-03-30T11:03:27.228Z,17.23
2023-03-30T11:06:00.229Z,22.00
2023-03-30T11:08:31.805Z,15.77
2023-03-30T11:11:01.175Z,9.23
2023-03-30T11:13:33.073Z,10.43
2023-03-30T11:16:05.672Z,14.93
2023-03-30T11:18:41.304Z,15.40
2023-03-30T11:21:16.423Z,15.27
2023-03-30T11:23:51.116Z,17.10
2023-03-30T11:26:23.960Z,14.73
2023-03-30T11:28:59.353Z,20.63
2023-03-30T11:31:40.210Z,19.02
2023-03-30T11:34:17.583Z,16.20
2023-03-30T11:36:52.095Z,15.48
2023-03-30T11:39:31.489Z,15.68
2023-03-30T11:42:06.941Z,20.30
2023-03-30T11:44:35.416Z,21.20
2023-03-30T11:47:26.728Z,14.38
2023-03-30T11:50:08.527Z,17.48
2023-03-30T11:52:45.929Z,19.35
2023-03-30T11:55:28.139Z,20.08
2023-03-30T11:58:06.807Z,20.30
2023-03-30T12:00:56.532Z,18.38
2023-03-30T12:03:42.353Z,20.20
2023-03-30T12:06:32.102Z,17.13
2023-03-30T12:09:24.501Z,14.77
2023-03-30T12:11:57.328Z,17.98
2023-03-30T12:14:49.036Z,14.98
2023-03-30T12:17:30.403Z,18.35
2023-03-30T12:20:04.352Z,22.05
2023-03-30T12:22:39.014Z,20.25
2023-03-30T12:25:22.957Z,17.63
2023-03-30T12:28:00.462Z,19.27
2023-03-30T12:30:32.425Z,14.52
2023-03-30T12:33:03.579Z,14.65
2023-03-30T12:35:57.304Z,22.75
2023-03-30T12:38:27.322Z,18.92
2023-03-30T12:41:06.107Z,20.38
2023-03-30T12:43:41.649Z,20.83
2023-03-30T12:46:14.086Z,21.17
2023-03-30T12:48:53.785Z,18.98
2023-03-30T12:51:33.747Z,16.00
2023-03-30T12:54:23.907Z,18.00
2023-03-30T12:57:04.023Z,13.60
2023-03-30T12:59:47.156Z,24.20
2023-03-30T13:02:39.777Z,17.60
2023-03-30T13:05:19.631Z,15.07
2023-03-30T13:07:48.036Z,19.50
2023-03-30T13:10:36.853Z,20.27
2023-03-30T13:13:07.078Z,20.13
2023-03-30T13:15:42.500Z,19.92
2023-03-30T13:18:41.020Z,20.33
2023-03-30T13:21:21.596Z,17.40
2023-03-30T13:24:23.501Z,21.73
2023-03-30T13:26:54.013Z,16.55
2023-03-30T13:29:26.295Z,22.27
2023-03-30T13:32:01.148Z,21.83
2023-03-30T13:35:08.165Z,17.90
2023-03-30T13:37:57.863Z,21.92
2023-03-30T13:40:40.180Z,24.48
2023-03-30T13:43:20.038Z,19.88
2023-03-30T13:46:05.562Z,21.60
2023-03-30T13:48:49.055Z,17.73
2023-03-30T13:51:19.918Z,30.40
2023-03-30T13:53:51.444Z,18.73
2023-03-30T13:56:22.270Z,24.85
2023-03-30T13:58:56.950Z,25.38
2023-03-30T14:01:26.743Z,25.73
2023-03-30T14:03:56.542Z,17.25
2023-03-30T14:06:26.461Z,23.80
2023-03-30T14:09:09.652Z,19.05
2023-03-30T14:11:39.924Z,22.52
2023-03-30T14:14:08.798Z,20.88
2023-03-30T14:16:41.333Z,21.48
2023-03-30T14:19:16.687Z,26.42
2023-03-30T14:21:46.473Z,24.05
2023-03-30T14:24:16.994Z,28.40
2023-03-30T14:26:48.233Z,23.48
2023-03-30T14:29:30.275Z,25.10
2023-03-30T14:32:09.240Z,24.63
2023-03-30T14:34:38.592Z,21.27
2023-03-30T14:37:08.841Z,20.95
2023-03-30T14:39:42.229Z,28.55
2023-03-30T14:42:16.618Z,25.67
2023-03-30T14:44:46.813Z,26.42
2023-03-30T14:47:17.022Z,23.27
2023-03-30T14:49:47.453Z,20.25
2023-03-30T14:52:20.006Z,18.92
2023-03-30T14:55:02.558Z,18.63
2023-03-30T14:57:37.890Z,20.30
2023-03-30T15:00:20.828Z,23.98
2023-03-30T15:02:53.475Z,24.67
2023-03-30T15:05:24.916Z,23.48
2023-03-30T15:07:54.008Z,30.10
2023-03-30T15:10:27.766Z,21.60
2023-03-30T15:12:58.438Z,22.25
2023-03-30T15:15:30.352Z,23.50
2023-03-30T15:18:00.779Z,18.70
2023-03-30T15:20:31.037Z,20.67
2023-03-30T15:23:00.836Z,23.98
2023-03-30T15:25:33.350Z,22.80
2023-03-30T15:28:04.638Z,24.17
2023-03-30T15:30:38.042Z,27.60
2023-03-30T15:33:08.517Z,23.23
2023-03-30T15:35:38.522Z,21.67
2023-03-30T15:38:16.840Z,24.90
2023-03-30T15:40:46.482Z,25.13
2023-03-30T15:43:20.432Z,23.75
2023-03-30T15:45:51.990Z,21.00
2023-03-30T15:48:24.842Z,20.92
2023-03-30T15:50:57.423Z,20.27
2023-03-30T15:53:35.182Z,26.02
2023-03-30T15:56:04.496Z,23.50
2023-03-30T15:58:34.929Z,24.00
2023-03-30T16:01:06.081Z,26.27
2023-03-30T16:03:41.338Z,21.73
2023-03-30T16:06:14.130Z,23.90
2023-03-30T16:08:44.435Z,22.40
2023-03-30T16:11:15.303Z,22.23
2023-03-30T16:13:44.617Z,22.52
2023-03-30T16:16:14.005Z,28.25
2023-03-30T16:18:43.408Z,26.95
2023-03-30T16:21:12.419Z,29.13
2023-03-30T16:23:40.779Z,31.63
2023-03-30T16:26:09.764Z,28.40
2023-03-30T16:28:38.291Z,26.90
2023-03-30T16:31:12.580Z,26.42
2023-03-30T16:33:40.595Z,31.50
2023-03-30T16:36:15.261Z,29.40
2023-03-30T16:38:43.443Z,24.20
2023-03-30T16:41:15.806Z,31.55
2023-03-30T16:43:43.821Z,27.92
2023-03-30T16:46:14.295Z,30.10
2023-03-30T16:48:42.601Z,31.45
2023-03-30T16:51:14.658Z,32.75
2023-03-30T16:53:43.224Z,26.52
2023-03-30T16:56:16.364Z,24.60
2023-03-30T16:58:44.391Z,35.25
2023-03-30T17:01:15.817Z,32.97
2023-03-30T17:03:43.960Z,28.38
2023-03-30T17:06:14.137Z,34.03
2023-03-30T17:08:43.097Z,28.98
2023-03-30T17:11:13.548Z,39.00
2023-03-30T17:13:42.348Z,28.80
2023-03-30T17:16:13.170Z,27.20
2023-03-30T17:18:42.097Z,31.65
2023-03-30T17:21:16.180Z,36.17
2023-03-30T17:23:47.730Z,36.20
2023-03-30T17:26:16.387Z,36.90
2023-03-30T17:28:44.944Z,34.53
2023-03-30T17:31:16.807Z,25.73
2023-03-30T17:33:44.949Z,34.85
2023-03-30T17:36:15.873Z,32.70
2023-03-30T17:38:45.563Z,34.15
2023-03-30T17:41:16.300Z,34.63
2023-03-30T17:43:44.601Z,38.10
2023-03-30T17:46:15.172Z,37.38
2023-03-30T17:48:43.812Z,40.45
2023-03-30T17:51:11.880Z,31.38
2023-03-30T17:53:39.984Z,35.92
2023-03-30T17:56:12.037Z,38.92
2023-03-30T17:58:40.155Z,33.67
2023-03-30T18:01:12.340Z,32.50
2023-03-30T18:03:40.857Z,37.50
2023-03-30T18:06:09.170Z,35.85
2023-03-30T18:08:38.971Z,39.97
2023-03-30T18:11:07.354Z,41.55
2023-03-30T18:13:37.063Z,39.05
2023-03-30T18:16:06.112Z,33.85
2023-03-30T18:18:34.222Z,36.80
2023-03-30T18:21:04.272Z,38.92
2023-03-30T18:23:34.722Z,40.85
2023-03-30T18:26:05.211Z,37.45
2023-03-30T18:28:33.975Z,42.30
2023-03-30T18:31:03.884Z,43.83
2023-03-30T18:33:33.171Z,40.33
2023-03-30T18:36:05.280Z,42.55
2023-03-30T18:38:33.681Z,41.42
2023-03-30T18:41:01.860Z,41.38
2023-03-30T18:43:30.056Z,39.28
2023-03-30T18:46:01.798Z,37.30
2023-03-30T18:48:31.735Z,38.28
2023-03-30T18:50:59.763Z,38.85
2023-03-30T18:53:29.185Z,38.92
2023-03-30T18:56:00.526Z,39.33
2023-03-30T18:58:30.540Z,40.33
2023-03-30T19:00:58.662Z,39.92
2023-03-30T19:03:28.554Z,43.03
2023-03-30T19:05:58.049Z,41.92
2023-03-30T19:08:27.236Z,35.88
2023-03-30T19:10:57.305Z,33.67
2023-03-30T19:13:27.084Z,37.65
2023-03-30T19:15:55.658Z,36.65
2023-03-30T19:18:23.854Z,36.50
2023-03-30T19:20:55.224Z,40.38
2023-03-30T19:23:24.817Z,38.33
2023-03-30T19:25:52.995Z,39.05
2023-03-30T19:28:21.234Z,36.55
2023-03-30T19:30:49.355Z,42.15
2023-03-30T19:33:20.816Z,38.67
2023-03-30T19:35:49.036Z,34.83
2023-03-30T19:38:17.233Z,32.55
2023-03-30T19:40:47.031Z,40.38
2023-03-30T19:43:16.140Z,35.88
2023-03-30T19:45:44.171Z,31.33
2023-03-30T19:48:12.143Z,34.67
2023-03-30T19:50:40.754Z,31.08
2023-03-30T19:53:09.403Z,38.67
2023-03-30T19:55:37.960Z,29.42
2023-03-30T19:58:07.420Z,41.85
2023-03-30T20:00:35.821Z,28.42
2023-03-30T20:03:04.098Z,37.72
2023-03-30T20:05:32.394Z,31.75
2023-03-30T20:08:05.723Z,32.95
2023-03-30T20:10:41.706Z,27.17
2023-03-30T20:13:11.119Z,26.13
2023-03-30T20:15:39.249Z,29.05
2023-03-30T20:18:07.376Z,27.08
2023-03-30T20:20:35.782Z,31.27
2023-03-30T20:23:04.043Z,31.58
2023-03-30T20:25:32.062Z,31.08
2023-03-30T20:28:00.166Z,31.02
2023-03-30T20:30:29.593Z,26.48
2023-03-30T20:33:07.480Z,34.15
2023-03-30T20:35:38.165Z,29.63
2023-03-30T20:38:08.312Z,24.77
2023-03-30T20:40:36.859Z,28.70
2023-03-30T20:43:10.166Z,27.95
2023-03-30T20:45:48.094Z,27.27
2023-03-30T20:48:26.444Z,32.35
2023-03-30T20:50:55.796Z,30.60
2023-03-30T20:53:24.901Z,28.35
2023-03-30T20:55:52.955Z,27.70
2023-03-30T20:58:22.282Z,29.58
2023-03-30T21:00:53.115Z,29.60
2023-03-30T21:03:26.022Z,32.88
2023-03-30T21:06:00.802Z,30.67
2023-03-30T21:08:29.211Z,26.48
2023-03-30T21:10:57.273Z,24.42
2023-03-30T21:13:25.589Z,27.50
2023-03-30T21:15:58.684Z,35.05
2023-03-30T21:18:27.319Z,23.92
2023-03-30T21:20:55.834Z,25.63
2023-03-30T21:23:25.449Z,30.60
2023-03-30T21:25:57.341Z,21.90
2023-03-30T21:28:27.317Z,24.17
2023-03-30T21:30:58.018Z,26.45
2023-03-30T21:33:27.919Z,25.17
2023-03-30T21:35:57.746Z,25.05
2023-03-30T21:38:27.826Z,27.45
2023-03-30T21:40:58.124Z,27.90
2023-03-30T21:43:26.744Z,22.92
2023-03-30T21:45:58.171Z,28.90
2023-03-30T21:48:28.000Z,24.83
2023-03-30T21:51:00.174Z,23.83
2023-03-30T21:53:29.539Z,21.42
2023-03-30T21:55:58.417Z,26.08
2023-03-30T21:58:27.297Z,23.15
2023-03-30T22:01:09.079Z,22.17
2023-03-30T22:03:40.963Z,23.08
2023-03-30T22:06:11.229Z,20.08
2023-03-30T22:08:40.082Z,24.02
2023-03-30T22:11:12.355Z,21.30
2023-03-30T22:13:41.132Z,21.45
2023-03-30T22:16:13.865Z,26.85
2023-03-30T22:18:42.348Z,20.83
2023-03-30T22:21:14.033Z,22.50
2023-03-30T22:23:42.471Z,24.30
2023-03-30T22:26:11.589Z,22.20
2023-03-30T22:28:39.959Z,25.00
2023-03-30T22:31:10.634Z,27.48
2023-03-30T22:33:39.029Z,22.70
2023-03-30T22:36:17.403Z,26.38
2023-03-30T22:38:45.839Z,27.70
2023-03-30T22:41:14.267Z,23.67
2023-03-30T22:43:42.597Z,27.20
2023-03-30T22:46:12.381Z,21.58
2023-03-30T22:48:42.181Z,28.38
2023-03-30T22:51:14.410Z,25.38
2023-03-30T22:53:42.826Z,25.52
2023-03-30T22:56:11.846Z,28.83
2023-03-30T22:58:40.267Z,24.65
2023-03-30T23:01:10.533Z,25.48
2023-03-30T23:03:40.507Z,28.15
2023-03-30T23:06:09.526Z,31.05
2023-03-30T23:08:39.348Z,26.58
2023-03-30T23:11:08.441Z,23.08
2023-03-30T23:13:38.067Z,25.67
2023-03-30T23:16:08.428Z,20.10
2023-03-30T23:18:37.358Z,26.50
2023-03-30T23:21:11.028Z,24.38
2023-03-30T23:23:39.814Z,27.85
2023-03-30T23:26:10.443Z,24.33
2023-03-30T23:28:40.184Z,23.63
2023-03-30T23:31:09.773Z,28.65
2023-03-30T23:33:38.169Z,20.67
2023-03-30T23:36:09.236Z,29.63
2023-03-30T23:38:38.080Z,23.80
2023-03-30T23:41:07.825Z,25.85
2023-03-30T23:43:36.503Z,26.70
2023-03-30T23:46:05.166Z,26.20
2023-03-30T23:48:33.805Z,24.55
2023-03-30T23:51:02.141Z,28.83
2023-03-30T23:53:31.974Z,24.23
2023-03-30T23:56:00.268Z,32.20
2023-03-30T23:58:28.593Z,24.90
